createdAt,value
2022-08-29T00:00:23.797Z,81.30
2022-08-29T00:02:57.398Z,81.30
2022-08-29T00:05:32.118Z,81.60
2022-08-29T00:08:01.513Z,81.70
2022-08-29T00:10:31.671Z,82.00
2022-08-29T00:13:00.510Z,82.00
2022-08-29T00:15:29.299Z,82.10
2022-08-29T00:17:57.549Z,82.20
2022-08-29T00:20:34.158Z,82.40
2022-08-29T00:23:04.819Z,82.70
2022-08-29T00:25:33.668Z,82.80
2022-08-29T00:28:02.311Z,82.70
2022-08-29T00:30:31.169Z,82.90
2022-08-29T00:32:59.508Z,83.10
2022-08-29T00:35:33.293Z,83.10
2022-08-29T00:38:03.393Z,83.30
2022-08-29T00:40:37.468Z,83.60
2022-08-29T00:43:08.512Z,83.60
2022-08-29T00:45:38.461Z,83.60
2022-08-29T00:48:12.756Z,83.70
2022-08-29T00:50:49.474Z,83.80
2022-08-29T00:53:23.075Z,84.00
2022-08-29T00:55:51.495Z,84.00
2022-08-29T00:58:27.452Z,84.30
2022-08-29T01:00:56.572Z,84.40
2022-08-29T01:03:25.281Z,85.50
2022-08-29T01:05:55.004Z,84.70
2022-08-29T01:08:23.295Z,84.90
2022-08-29T01:11:10.546Z,85.10
2022-08-29T01:13:45.190Z,85.20
2022-08-29T01:16:15.878Z,85.30
2022-08-29T01:18:49.743Z,85.50
2022-08-29T01:21:30.448Z,85.60
2022-08-29T01:24:12.286Z,86.40
2022-08-29T01:26:43.130Z,85.60
2022-08-29T01:29:11.731Z,85.70
2022-08-29T01:31:57.215Z,85.80
2022-08-29T01:34:28.443Z,85.70
2022-08-29T01:36:59.089Z,85.80
2022-08-29T01:39:32.276Z,85.90
2022-08-29T01:42:05.755Z,85.80
2022-08-29T01:44:34.105Z,86.10
2022-08-29T01:47:03.582Z,86.50
2022-08-29T01:49:34.566Z,86.60
2022-08-29T01:54:39.247Z,86.90
2022-08-29T01:57:12.819Z,87.10
2022-08-29T01:59:42.322Z,87.00
2022-08-29T02:02:17.154Z,87.00
2022-08-29T02:04:47.109Z,86.80
2022-08-29T02:07:17.899Z,87.10
2022-08-29T02:09:47.026Z,86.90
2022-08-29T02:12:17.155Z,87.10
2022-08-29T02:14:45.950Z,87.10
2022-08-29T02:17:14.169Z,87.30
2022-08-29T02:19:43.452Z,87.10
2022-08-29T02:22:12.447Z,87.30
2022-08-29T02:24:40.669Z,87.40
2022-08-29T02:27:10.320Z,87.50
2022-08-29T02:29:39.831Z,87.70
2022-08-29T02:32:11.896Z,87.80
2022-08-29T02:34:43.920Z,87.90
2022-08-29T02:37:13.800Z,88.00
2022-08-29T02:39:41.749Z,88.10
2022-08-29T02:42:09.820Z,88.40
2022-08-29T02:44:39.164Z,88.70
2022-08-29T02:47:08.993Z,89.00
2022-08-29T02:49:37.158Z,89.10
2022-08-29T02:52:08.351Z,89.20
2022-08-29T02:54:36.777Z,89.40
2022-08-29T02:57:08.039Z,89.40
2022-08-29T02:59:36.058Z,89.30
2022-08-29T03:02:05.584Z,89.50
2022-08-29T03:04:33.563Z,89.40
2022-08-29T03:07:01.541Z,89.60
2022-08-29T03:09:29.508Z,89.70
2022-08-29T03:11:57.506Z,90.00
2022-08-29T03:14:26.348Z,90.00
2022-08-29T03:16:54.967Z,90.00
2022-08-29T03:19:24.395Z,90.10
2022-08-29T03:21:52.657Z,90.10
2022-08-29T03:24:26.487Z,90.20
2022-08-29T03:26:56.326Z,90.20
2022-08-29T03:29:26.005Z,90.30
2022-08-29T03:31:58.130Z,90.40
2022-08-29T03:34:28.619Z,90.40
2022-08-29T03:36:56.807Z,90.30
2022-08-29T03:39:25.410Z,90.40
2022-08-29T03:41:54.519Z,90.30
2022-08-29T03:44:22.781Z,90.30
2022-08-29T03:46:51.142Z,90.20
2022-08-29T03:49:19.108Z,90.30
2022-08-29T03:51:49.905Z,90.40
2022-08-29T03:54:18.041Z,90.50
2022-08-29T03:56:46.527Z,90.60
2022-08-29T03:59:16.173Z,90.70
2022-08-29T04:01:44.428Z,90.70
2022-08-29T04:04:32.372Z,90.90
2022-08-29T04:07:02.228Z,91.00
2022-08-29T04:09:31.136Z,91.00
2022-08-29T04:11:59.582Z,91.00
2022-08-29T04:14:27.484Z,91.00
2022-08-29T04:16:55.514Z,91.10
2022-08-29T04:19:23.753Z,91.20
2022-08-29T04:21:51.845Z,91.20
2022-08-29T04:24:21.105Z,91.70
2022-08-29T04:26:49.000Z,91.40
2022-08-29T04:29:16.992Z,91.40
2022-08-29T04:31:47.449Z,91.50
2022-08-29T04:34:15.664Z,91.50
2022-08-29T04:36:45.465Z,91.60
2022-08-29T04:39:15.421Z,91.60
2022-08-29T04:41:45.099Z,91.60
2022-08-29T04:44:14.168Z,91.60
2022-08-29T04:46:42.237Z,91.70
2022-08-29T04:49:10.361Z,91.80
2022-08-29T04:51:38.320Z,91.90
2022-08-29T04:54:07.602Z,91.90
2022-08-29T04:56:38.022Z,91.90
2022-08-29T04:59:12.629Z,92.00
2022-08-29T05:01:42.410Z,92.10
2022-08-29T05:04:19.035Z,92.20
2022-08-29T05:06:46.969Z,92.20
2022-08-29T05:09:15.111Z,92.10
2022-08-29T05:11:43.442Z,92.20
2022-08-29T05:14:12.900Z,92.20
2022-08-29T05:16:41.902Z,92.30
2022-08-29T05:19:10.260Z,92.40
2022-08-29T05:21:40.725Z,92.50
2022-08-29T05:24:13.169Z,92.60
2022-08-29T05:26:45.042Z,92.70
2022-08-29T05:29:17.387Z,92.80
2022-08-29T05:31:45.808Z,93.00
2022-08-29T05:34:32.827Z,93.10
2022-08-29T05:37:04.131Z,93.40
2022-08-29T05:39:32.720Z,93.60
2022-08-29T05:42:00.834Z,93.80
2022-08-29T05:44:35.092Z,94.10
2022-08-29T05:47:05.329Z,94.30
2022-08-29T05:49:33.342Z,94.50
2022-08-29T05:52:01.336Z,94.70
2022-08-29T05:54:30.219Z,94.90
2022-08-29T05:56:58.698Z,95.10
2022-08-29T05:59:26.834Z,95.30
2022-08-29T06:01:56.137Z,95.50
2022-08-29T06:04:24.381Z,95.80
2022-08-29T06:06:52.297Z,95.90
2022-08-29T06:09:20.400Z,96.10
2022-08-29T06:11:49.917Z,96.30
2022-08-29T06:14:22.306Z,96.50
2022-08-29T06:16:50.407Z,96.50
2022-08-29T06:19:20.056Z,96.70
2022-08-29T06:21:48.366Z,96.80
2022-08-29T06:24:17.415Z,97.00
2022-08-29T06:26:46.011Z,97.10
2022-08-29T06:29:15.952Z,97.20
2022-08-29T06:31:44.232Z,97.20
2022-08-29T06:34:12.354Z,97.30
2022-08-29T06:36:41.778Z,97.40
2022-08-29T06:39:12.131Z,97.60
2022-08-29T06:41:42.277Z,97.80
2022-08-29T06:44:11.067Z,98.00
2022-08-29T06:46:42.808Z,98.20
2022-08-29T06:49:14.904Z,98.30
2022-08-29T06:51:49.238Z,98.50
2022-08-29T06:54:18.594Z,98.80
2022-08-29T06:56:47.070Z,99.00
2022-08-29T06:59:15.367Z,99.20
2022-08-29T07:01:45.866Z,99.00
2022-08-29T07:04:14.863Z,98.90
2022-08-29T07:06:45.632Z,98.80
2022-08-29T07:09:14.991Z,98.70
2022-08-29T07:11:44.655Z,98.70
2022-08-29T07:14:13.760Z,98.80
2022-08-29T07:16:42.686Z,98.80
2022-08-29T07:19:11.521Z,98.60
2022-08-29T07:21:40.057Z,98.50
2022-08-29T07:24:09.728Z,98.20
2022-08-29T07:26:43.934Z,98.10
2022-08-29T07:29:17.069Z,98.10
2022-08-29T07:31:45.293Z,97.90
2022-08-29T07:34:13.354Z,97.90
2022-08-29T07:36:42.113Z,97.80
2022-08-29T07:39:16.204Z,97.50
2022-08-29T07:41:45.493Z,97.20
2022-08-29T07:44:14.660Z,97.30
2022-08-29T07:46:43.774Z,97.30
2022-08-29T07:49:12.726Z,97.10
2022-08-29T07:51:44.263Z,97.00
2022-08-29T07:54:16.677Z,96.80
2022-08-29T07:56:45.541Z,96.60
2022-08-29T07:59:14.319Z,96.50
2022-08-29T08:01:42.603Z,96.40
2022-08-29T08:04:11.584Z,96.40
2022-08-29T08:06:42.140Z,96.20
2022-08-29T08:09:15.256Z,96.10
2022-08-29T08:11:44.678Z,96.10
2022-08-29T08:14:13.773Z,96.00
2022-08-29T08:16:44.179Z,95.80
2022-08-29T08:19:13.142Z,95.70
2022-08-29T08:21:44.337Z,95.70
2022-08-29T08:24:19.894Z,95.50
2022-08-29T08:26:50.080Z,95.40
2022-08-29T08:29:19.131Z,95.10
2022-08-29T08:31:51.609Z,94.90
2022-08-29T08:34:20.398Z,94.90
2022-08-29T08:36:48.503Z,94.70
2022-08-29T08:39:18.175Z,94.50
2022-08-29T08:41:54.718Z,94.40
2022-08-29T08:45:03.023Z,94.10
2022-08-29T08:47:38.162Z,93.80
2022-08-29T08:50:19.357Z,93.80
2022-08-29T08:52:58.624Z,93.80
2022-08-29T08:55:38.749Z,93.70
2022-08-29T08:58:28.956Z,93.60
2022-08-29T09:01:02.413Z,93.60
2022-08-29T09:04:10.445Z,93.60
2022-08-29T09:07:02.651Z,93.40
2022-08-29T09:09:44.722Z,93.50
2022-08-29T09:12:32.485Z,93.50
2022-08-29T09:15:13.613Z,93.40
2022-08-29T09:17:49.893Z,93.30
2022-08-29T09:20:23.187Z,93.30
2022-08-29T09:23:01.601Z,93.30
2022-08-29T09:25:31.452Z,93.20
2022-08-29T09:28:01.818Z,93.10
2022-08-29T09:30:33.960Z,93.00
2022-08-29T09:33:07.762Z,93.00
2022-08-29T09:35:40.705Z,92.90
2022-08-29T09:38:21.223Z,92.70
2022-08-29T09:40:56.833Z,92.40
2022-08-29T09:43:44.869Z,92.20
2022-08-29T09:46:23.340Z,92.10
2022-08-29T09:48:54.763Z,92.00
2022-08-29T09:51:28.485Z,92.10
2022-08-29T09:54:16.382Z,92.20
2022-08-29T09:56:56.462Z,91.80
2022-08-29T09:59:35.897Z,91.90
2022-08-29T10:02:26.442Z,92.10
2022-08-29T10:04:58.328Z,91.90
2022-08-29T10:07:30.475Z,91.70
2022-08-29T10:10:06.908Z,91.80
2022-08-29T10:12:53.223Z,91.70
2022-08-29T10:15:49.426Z,91.30
2022-08-29T10:18:30.241Z,91.20
2022-08-29T10:21:16.832Z,91.20
2022-08-29T10:24:14.736Z,91.00
2022-08-29T10:26:57.057Z,90.70
2022-08-29T10:29:46.765Z,90.70
2022-08-29T10:32:41.599Z,90.50
2022-08-29T10:35:19.999Z,90.60
2022-08-29T10:37:58.576Z,90.70
2022-08-29T10:40:31.820Z,90.60
2022-08-29T10:43:34.309Z,90.60
2022-08-29T10:46:35.430Z,90.50
2022-08-29T10:49:19.401Z,90.30
2022-08-29T10:51:59.676Z,90.30
2022-08-29T10:54:39.097Z,90.40
2022-08-29T10:57:10.232Z,90.20
2022-08-29T11:00:01.679Z,90.10
2022-08-29T11:02:37.110Z,90.00
2022-08-29T11:05:13.412Z,90.00
2022-08-29T11:07:48.182Z,89.60
2022-08-29T11:10:22.047Z,89.30
2022-08-29T11:12:56.681Z,89.30
2022-08-29T11:15:32.351Z,89.20
2022-08-29T11:18:13.398Z,89.30
2022-08-29T11:20:51.096Z,88.80
2022-08-29T11:23:32.667Z,88.70
2022-08-29T11:26:09.147Z,88.50
2022-08-29T11:31:25.891Z,88.70
2022-08-29T11:34:31.331Z,88.70
2022-08-29T11:37:37.643Z,88.10
2022-08-29T11:40:16.372Z,87.40
2022-08-29T11:42:50.449Z,88.50
2022-08-29T11:45:35.555Z,88.30
2022-08-29T11:48:32.095Z,87.90
2022-08-29T11:51:01.364Z,87.50
2022-08-29T11:53:38.133Z,88.20
2022-08-29T11:56:31.462Z,87.70
2022-08-29T11:59:00.400Z,87.00
2022-08-29T12:02:00.664Z,86.90
2022-08-29T12:04:54.769Z,85.60
2022-08-29T12:07:36.087Z,85.50
2022-08-29T12:10:11.225Z,86.10
2022-08-29T12:12:47.376Z,86.00
2022-08-29T12:15:54.076Z,86.10
2022-08-29T12:18:45.775Z,85.20
2022-08-29T12:21:49.995Z,84.90
2022-08-29T12:24:57.510Z,83.40
2022-08-29T12:28:05.970Z,84.70
2022-08-29T12:30:41.228Z,82.70
2022-08-29T12:33:29.942Z,84.00
2022-08-29T12:36:19.371Z,83.10
2022-08-29T12:39:09.681Z,82.60
2022-08-29T12:41:58.450Z,83.10
2022-08-29T12:44:36.749Z,83.40
2022-08-29T12:47:10.200Z,83.20
2022-08-29T12:49:50.884Z,83.00
2022-08-29T12:52:28.013Z,82.80
2022-08-29T12:54:58.726Z,83.00
2022-08-29T12:57:35.520Z,82.20
2022-08-29T13:00:19.960Z,82.30
2022-08-29T13:03:02.250Z,81.20
2022-08-29T13:05:33.698Z,80.70
2022-08-29T13:08:12.457Z,80.70
2022-08-29T13:10:53.984Z,80.90
2022-08-29T13:13:25.467Z,80.40
2022-08-29T13:15:57.523Z,80.10
2022-08-29T13:18:25.785Z,80.60
2022-08-29T13:21:18.302Z,80.40
2022-08-29T13:23:57.164Z,79.40
2022-08-29T13:26:32.124Z,79.90
2022-08-29T13:29:16.090Z,79.70
2022-08-29T13:31:45.627Z,79.60
2022-08-29T13:34:22.547Z,79.20
2022-08-29T13:37:07.613Z,77.10
2022-08-29T13:39:48.577Z,77.80
2022-08-29T13:42:26.012Z,77.70
2022-08-29T13:45:22.755Z,78.40
2022-08-29T13:48:20.378Z,76.90
2022-08-29T13:50:48.727Z,77.20
2022-08-29T13:53:17.001Z,77.50
2022-08-29T13:55:45.263Z,77.10
2022-08-29T13:58:14.929Z,77.60
2022-08-29T14:00:44.000Z,77.50
2022-08-29T14:03:13.435Z,77.40
2022-08-29T14:05:43.397Z,76.90
2022-08-29T14:08:13.733Z,76.00
2022-08-29T14:10:42.229Z,76.80
2022-08-29T14:13:10.290Z,76.70
2022-08-29T14:15:39.529Z,76.40
2022-08-29T14:18:07.792Z,76.30
2022-08-29T14:20:37.059Z,75.70
2022-08-29T14:23:07.231Z,75.40
2022-08-29T14:25:35.326Z,75.00
2022-08-29T14:28:03.933Z,75.40
2022-08-29T14:30:32.123Z,75.20
2022-08-29T14:33:00.227Z,76.30
2022-08-29T14:35:31.572Z,75.00
2022-08-29T14:38:01.886Z,74.10
2022-08-29T14:40:32.833Z,74.10
2022-08-29T14:43:02.979Z,74.20
2022-08-29T14:45:33.265Z,74.30
2022-08-29T14:48:02.382Z,74.70
2022-08-29T14:50:30.619Z,74.40
2022-08-29T14:52:58.687Z,74.60
2022-08-29T14:55:27.072Z,74.50
2022-08-29T14:57:56.578Z,74.50
2022-08-29T15:00:30.801Z,73.90
2022-08-29T15:02:59.871Z,73.90
2022-08-29T15:05:28.708Z,73.60
2022-08-29T15:07:57.532Z,72.70
2022-08-29T15:10:26.211Z,72.50
2022-08-29T15:12:55.894Z,71.80
2022-08-29T15:15:29.282Z,71.50
2022-08-29T15:17:58.486Z,71.50
2022-08-29T15:20:37.966Z,71.10
2022-08-29T15:23:07.534Z,71.40
2022-08-29T15:25:36.087Z,71.50
2022-08-29T15:28:06.892Z,71.60
2022-08-29T15:30:38.236Z,71.10
2022-08-29T15:33:20.244Z,70.80
2022-08-29T15:38:36.013Z,70.40
2022-08-29T15:41:07.124Z,70.40
2022-08-29T15:43:39.902Z,69.80
2022-08-29T15:46:08.384Z,69.80
2022-08-29T15:48:37.390Z,69.30
2022-08-29T15:51:05.685Z,69.60
2022-08-29T15:53:33.843Z,69.40
2022-08-29T15:56:02.037Z,69.20
2022-08-29T15:58:30.202Z,68.90
2022-08-29T16:00:59.899Z,69.20
2022-08-29T16:03:28.071Z,69.30
2022-08-29T16:05:56.358Z,69.40
2022-08-29T16:08:29.518Z,69.20
2022-08-29T16:10:58.152Z,69.10
2022-08-29T16:13:26.627Z,68.90
2022-08-29T16:15:55.021Z,68.90
2022-08-29T16:18:25.499Z,68.50
2022-08-29T16:20:56.765Z,68.50
2022-08-29T16:23:25.064Z,68.30
2022-08-29T16:25:53.466Z,68.30
2022-08-29T16:28:21.793Z,68.00
2022-08-29T16:30:51.426Z,67.80
2022-08-29T16:33:19.619Z,68.10
2022-08-29T16:35:49.200Z,67.90
2022-08-29T16:38:17.841Z,67.40
2022-08-29T16:40:46.444Z,67.70
2022-08-29T16:43:14.761Z,67.40
2022-08-29T16:45:43.469Z,68.20
2022-08-29T16:48:15.945Z,67.60
2022-08-29T16:50:46.611Z,67.60
2022-08-29T16:53:16.395Z,67.50
2022-08-29T16:55:44.727Z,67.40
2022-08-29T16:58:30.789Z,67.20
2022-08-29T17:00:59.240Z,67.40
2022-08-29T17:03:28.135Z,67.40
2022-08-29T17:05:56.432Z,67.40
2022-08-29T17:08:24.946Z,67.50
2022-08-29T17:10:52.057Z,67.60
2022-08-29T17:13:19.127Z,67.60
2022-08-29T17:15:46.193Z,67.60
2022-08-29T17:19:00.162Z,67.70
2022-08-29T17:21:30.668Z,67.10
2022-08-29T17:24:02.262Z,67.70
2022-08-29T17:26:35.383Z,67.90
2022-08-29T17:29:06.264Z,68.00
2022-08-29T17:31:38.584Z,67.90
2022-08-29T17:34:09.812Z,68.00
2022-08-29T17:36:40.667Z,68.20
2022-08-29T17:39:11.434Z,68.40
2022-08-29T17:41:40.487Z,68.30
2022-08-29T17:44:10.970Z,68.40
2022-08-29T17:46:39.143Z,68.50
2022-08-29T17:49:10.273Z,68.50
2022-08-29T17:51:39.928Z,68.50
2022-08-29T17:54:12.492Z,68.60
2022-08-29T17:56:46.380Z,68.70
2022-08-29T17:59:18.003Z,68.90
2022-08-29T18:01:46.509Z,69.10
2022-08-29T18:04:15.586Z,69.20
2022-08-29T18:06:44.186Z,69.20
2022-08-29T18:09:14.384Z,69.20
2022-08-29T18:11:46.669Z,69.20
2022-08-29T18:14:16.394Z,69.20
2022-08-29T18:16:44.805Z,70.00
2022-08-29T18:19:13.468Z,69.20
2022-08-29T18:21:43.745Z,69.30
2022-08-29T18:24:15.660Z,69.60
2022-08-29T18:26:47.723Z,70.00
2022-08-29T18:29:16.592Z,70.80
2022-08-29T18:31:45.125Z,70.50
2022-08-29T18:34:14.375Z,70.80
2022-08-29T18:36:44.971Z,70.90
2022-08-29T18:39:16.913Z,71.50
2022-08-29T18:41:45.281Z,71.70
2022-08-29T18:44:13.803Z,71.80
2022-08-29T18:46:43.477Z,72.10
2022-08-29T18:49:16.849Z,72.30
2022-08-29T18:51:45.129Z,72.50
2022-08-29T18:54:18.891Z,72.70
2022-08-29T18:56:47.906Z,72.80
2022-08-29T18:59:16.013Z,73.00
2022-08-29T19:01:44.471Z,73.10
2022-08-29T19:04:12.803Z,73.30
2022-08-29T19:06:41.102Z,73.50
2022-08-29T19:09:09.224Z,73.80
2022-08-29T19:11:38.799Z,73.90
2022-08-29T19:14:07.359Z,74.00
2022-08-29T19:16:36.865Z,74.30
2022-08-29T19:19:05.197Z,74.40
2022-08-29T19:21:41.617Z,74.70
2022-08-29T19:24:10.124Z,74.80
2022-08-29T19:26:39.979Z,75.00
2022-08-29T19:29:13.991Z,75.20
2022-08-29T19:31:44.737Z,75.30
2022-08-29T19:34:13.126Z,75.60
2022-08-29T19:36:42.997Z,75.90
2022-08-29T19:39:18.832Z,75.90
2022-08-29T19:41:48.722Z,76.20
2022-08-29T19:44:27.979Z,77.20
2022-08-29T19:47:01.790Z,76.60
2022-08-29T19:49:30.292Z,76.80
2022-08-29T19:52:13.208Z,76.80
2022-08-29T19:54:46.484Z,77.00
2022-08-29T19:57:16.475Z,77.20
2022-08-29T19:59:45.846Z,77.50
2022-08-29T20:02:17.223Z,77.60
2022-08-29T20:04:46.582Z,77.90
2022-08-29T20:07:14.761Z,78.10
2022-08-29T20:09:44.234Z,78.10
2022-08-29T20:12:13.108Z,78.20
2022-08-29T20:14:46.137Z,78.20
2022-08-29T20:17:14.322Z,78.30
2022-08-29T20:19:44.411Z,78.70
2022-08-29T20:22:21.150Z,78.90
2022-08-29T20:24:59.661Z,79.10
2022-08-29T20:27:31.374Z,79.20
2022-08-29T20:30:04.363Z,79.40
2022-08-29T20:32:32.524Z,79.40
2022-08-29T20:35:00.620Z,79.60
2022-08-29T20:37:28.363Z,79.80
2022-08-29T20:39:56.936Z,80.10
2022-08-29T20:42:25.529Z,80.20
2022-08-29T20:44:56.026Z,80.40
2022-08-29T20:47:26.247Z,80.60
2022-08-29T20:49:57.361Z,81.60
2022-08-29T20:52:25.433Z,81.00
2022-08-29T20:54:53.571Z,81.20
2022-08-29T20:57:21.748Z,81.40
2022-08-29T20:59:49.792Z,81.70
2022-08-29T21:02:17.851Z,81.80
2022-08-29T21:05:04.896Z,81.90
2022-08-29T21:07:33.288Z,82.00
2022-08-29T21:10:01.989Z,82.10
2022-08-29T21:12:30.408Z,82.20
2022-08-29T21:14:58.531Z,82.20
2022-08-29T21:17:26.589Z,82.30
2022-08-29T21:19:55.988Z,82.30
2022-08-29T21:22:25.165Z,82.70
2022-08-29T21:24:56.066Z,82.70
2022-08-29T21:27:24.319Z,83.10
2022-08-29T21:29:55.530Z,83.40
2022-08-29T21:32:23.686Z,83.20
2022-08-29T21:34:51.701Z,83.30
2022-08-29T21:37:21.067Z,83.60
2022-08-29T21:39:49.906Z,83.60
2022-08-29T21:42:18.323Z,84.20
2022-08-29T21:44:46.494Z,84.10
2022-08-29T21:47:17.730Z,84.10
2022-08-29T21:49:48.356Z,84.20
2022-08-29T21:52:16.731Z,84.70
2022-08-29T21:54:48.743Z,84.60
2022-08-29T21:57:19.059Z,84.80
2022-08-29T21:59:48.506Z,84.70
2022-08-29T22:02:17.456Z,84.80
2022-08-29T22:04:45.656Z,85.20
2022-08-29T22:07:13.694Z,85.10
2022-08-29T22:09:41.774Z,85.20
2022-08-29T22:12:11.332Z,85.30
2022-08-29T22:14:57.407Z,85.40
2022-08-29T22:17:25.502Z,85.70
2022-08-29T22:19:53.542Z,85.70
2022-08-29T22:22:21.751Z,85.80
2022-08-29T22:24:49.810Z,85.90
2022-08-29T22:27:19.412Z,86.10
2022-08-29T22:29:47.441Z,86.20
2022-08-29T22:32:15.447Z,86.30
2022-08-29T22:34:43.574Z,86.60
2022-08-29T22:37:11.625Z,87.00
2022-08-29T22:39:39.681Z,86.80
2022-08-29T22:42:07.961Z,87.00
2022-08-29T22:45:02.181Z,86.80
2022-08-29T22:47:26.676Z,87.00
2022-08-29T22:49:55.558Z,87.10
2022-08-29T22:52:23.699Z,87.20
2022-08-29T22:54:51.763Z,87.50
2022-08-29T22:57:20.394Z,87.60
2022-08-29T22:59:50.075Z,87.80
2022-08-29T23:02:20.955Z,87.90
2022-08-29T23:04:51.885Z,88.10
2022-08-29T23:07:20.826Z,88.20
2022-08-29T23:09:48.869Z,88.40
2022-08-29T23:12:16.975Z,88.40
2022-08-29T23:14:47.149Z,88.50
2022-08-29T23:17:18.560Z,88.70
2022-08-29T23:19:47.328Z,88.40
2022-08-29T23:22:18.077Z,88.40
2022-08-29T23:24:57.550Z,88.50
2022-08-29T23:27:27.737Z,88.60
2022-08-29T23:29:56.168Z,88.50
2022-08-29T23:32:26.212Z,88.60
2022-08-29T23:34:54.980Z,88.60
2022-08-29T23:37:23.197Z,88.70
2022-08-29T23:39:51.805Z,88.70
2022-08-29T23:42:20.055Z,88.90
2022-08-29T23:44:48.571Z,89.20
2022-08-29T23:47:17.471Z,89.10
2022-08-29T23:49:47.459Z,89.30
2022-08-29T23:52:15.688Z,89.40
2022-08-29T23:54:43.913Z,89.50
2022-08-29T23:57:12.087Z,89.80
2022-08-29T23:59:57.948Z,89.80
